Time;durP1;ratioP1;P1;durP2;ratioP2;P2;SDS_P1;SDS_P2;PMS_P1;PMS_P2;Temp;Humidity;BMP_temperature;BMP_pressure;BME280_temperature;BME280_humidity;BME280_pressure;Samples;Min_cycle;Max_cycle;Signal;HPM_P1;HPM_P2
2023/08/09 00:02:23;;;;;;;3.03;1.63;;;;;;;13.94;100.00;99946.16;5075250;28;20238;-78
2023/08/09 00:04:50;;;;;;;1.20;1.10;;;;;;;13.98;100.00;99954.75;5063246;28;20231;-78
2023/08/09 00:07:16;;;;;;;1.60;1.20;;;;;;;13.68;100.00;99942.81;5056095;28;20218;-79
2023/08/09 00:09:43;;;;;;;1.60;1.20;;;;;;;13.66;100.00;99928.06;5054888;28;20214;-79
2023/08/09 00:12:09;;;;;;;1.93;1.50;;;;;;;13.74;100.00;99914.63;5055029;28;20233;-79
2023/08/09 00:14:37;;;;;;;1.70;1.60;;;;;;;13.78;100.00;99906.56;5054356;28;20209;-78
2023/08/09 00:17:04;;;;;;;2.67;1.50;;;;;;;13.61;100.00;99907.25;5055097;28;20215;-79
2023/08/09 00:19:30;;;;;;;2.07;1.70;;;;;;;13.45;100.00;99906.16;5053018;28;20210;-78
2023/08/09 00:21:56;;;;;;;1.60;1.50;;;;;;;13.50;100.00;99902.44;5065009;28;20233;-79
2023/08/09 00:24:23;;;;;;;1.30;1.20;;;;;;;13.65;100.00;99897.47;5073320;28;20721;-78
2023/08/09 00:26:50;;;;;;;2.83;1.20;;;;;;;13.78;100.00;99903.09;5072717;28;20222;-79
2023/08/09 00:29:16;;;;;;;2.03;1.73;;;;;;;13.43;100.00;99942.91;5072845;28;20736;-79
2023/08/09 00:31:44;;;;;;;1.43;1.33;;;;;;;13.35;100.00;99931.88;5064674;28;20235;-79
2023/08/09 00:34:11;;;;;;;4.63;1.57;;;;;;;13.57;100.00;99929.25;5074490;28;20229;-79
2023/08/09 00:36:38;;;;;;;1.63;1.20;;;;;;;13.67;100.00;99940.25;5079692;28;20202;-80
2023/08/09 00:39:05;;;;;;;1.87;0.90;;;;;;;13.77;100.00;99949.44;5081200;28;20207;-79
2023/08/09 00:41:32;;;;;;;1.23;1.07;;;;;;;13.85;100.00;99950.00;5082146;28;20224;-80
2023/08/09 00:43:59;;;;;;;1.47;1.13;;;;;;;13.84;100.00;99965.81;5081437;28;20227;-80
2023/08/09 00:46:25;;;;;;;1.40;1.07;;;;;;;13.77;100.00;99970.44;5076261;28;20203;-79
2023/08/09 00:48:53;;;;;;;1.77;1.07;;;;;;;13.89;100.00;99967.34;5073033;28;20208;-80
2023/08/09 00:51:20;;;;;;;1.40;1.30;;;;;;;13.96;100.00;99974.97;5073059;28;20242;-78
2023/08/09 00:53:48;;;;;;;1.40;1.30;;;;;;;14.01;100.00;99975.63;5073628;28;20203;-79
2023/08/09 00:56:14;;;;;;;1.30;1.10;;;;;;;14.02;100.00;99970.31;5075275;28;20212;-80
2023/08/09 00:58:41;;;;;;;2.40;1.07;;;;;;;14.04;100.00;99957.97;5066843;28;20674;-80
2023/08/09 01:01:07;;;;;;;2.20;1.13;;;;;;;14.11;100.00;99966.44;5076445;28;20227;-79
2023/08/09 01:03:34;;;;;;;1.17;1.10;;;;;;;14.12;100.00;99973.41;5075538;28;20646;-79
2023/08/09 01:06:15;;;;;;;3.30;1.30;;;;;;;14.22;100.00;99981.78;5076205;28;20208;-80
2023/08/09 01:08:48;;;;;;;1.20;1.20;;;;;;;14.26;100.00;99981.56;5076227;28;20219;-80
2023/08/09 01:11:24;;;;;;;1.00;1.00;;;;;;;14.29;100.00;99981.44;5075859;28;20728;-80
2023/08/09 01:13:52;;;;;;;2.23;1.70;;;;;;;14.28;100.00;99994.63;5075415;28;20203;-79
2023/08/09 01:16:21;;;;;;;1.73;1.63;;;;;;;14.25;100.00;100003.50;5075906;28;20238;-80
2023/08/09 01:18:49;;;;;;;1.80;1.30;;;;;;;14.26;100.00;99994.69;5075927;28;20213;-80
2023/08/09 01:21:20;;;;;;;1.60;1.33;;;;;;;14.25;100.00;99985.13;5075616;28;20266;-80
2023/08/09 01:23:49;;;;;;;2.23;1.47;;;;;;;14.25;100.00;99982.50;5075704;28;20234;-79
2023/08/09 01:26:16;;;;;;;3.10;1.63;;;;;;;14.30;100.00;99992.81;5078215;28;20222;-79
2023/08/09 01:28:43;;;;;;;2.23;1.40;;;;;;;14.30;100.00;99987.56;5077672;28;20211;-79
2023/08/09 01:31:10;;;;;;;2.67;1.40;;;;;;;14.26;100.00;99986.81;5076885;28;20250;-79
2023/08/09 01:33:37;;;;;;;1.60;1.50;;;;;;;14.29;100.00;99989.31;5076430;28;20204;-79
2023/08/09 01:36:10;;;;;;;2.40;1.47;;;;;;;14.27;100.00;99999.03;5076805;28;20214;-79
2023/08/09 01:38:42;;;;;;;1.40;1.30;;;;;;;14.30;100.00;100011.19;5077469;28;20625;-80
2023/08/09 01:41:11;;;;;;;1.47;1.37;;;;;;;14.27;100.00;100041.03;5076794;28;20225;-77
2023/08/09 01:43:38;;;;;;;1.73;1.23;;;;;;;14.30;100.00;100034.81;5075973;28;20227;-79
2023/08/09 01:46:05;;;;;;;1.93;1.37;;;;;;;14.27;100.00;100029.66;5075527;28;20219;-78
2023/08/09 01:48:31;;;;;;;1.33;1.27;;;;;;;14.25;100.00;100031.50;5075388;28;20704;-79
2023/08/09 01:50:58;;;;;;;1.50;1.30;;;;;;;14.26;100.00;100036.69;5077712;28;20237;-80
2023/08/09 01:53:25;;;;;;;3.07;1.57;;;;;;;14.23;100.00;100023.72;5078449;28;20233;-80
2023/08/09 01:55:52;;;;;;;1.77;1.33;;;;;;;14.13;100.00;100024.13;5075732;28;20246;-79
2023/08/09 01:58:19;;;;;;;2.30;1.50;;;;;;;14.11;100.00;100011.06;5074713;28;20210;-79
2023/08/09 02:00:46;;;;;;;1.53;1.43;;;;;;;14.09;100.00;100016.41;5075582;28;20704;-79
2023/08/09 02:03:12;;;;;;;1.30;1.20;;;;;;;14.11;100.00;100021.56;5075379;28;20209;-79
2023/08/09 02:05:39;;;;;;;1.53;1.33;;;;;;;14.09;100.00;100015.53;5077128;28;20701;-79
2023/08/09 02:08:06;;;;;;;2.63;1.53;;;;;;;14.10;100.00;100019.88;5077053;28;20203;-79
2023/08/09 02:10:32;;;;;;;1.40;1.30;;;;;;;14.09;100.00;100021.66;5077591;28;20224;-79
2023/08/09 02:12:59;;;;;;;2.10;1.77;;;;;;;14.09;100.00;100039.13;5063429;28;20252;-79
2023/08/09 02:15:27;;;;;;;8.17;1.50;;;;;;;14.11;100.00;100042.56;5055876;28;20204;-79
2023/08/09 02:17:56;;;;;;;1.53;1.43;;;;;;;14.14;100.00;100039.81;5057078;28;20209;-80
2023/08/09 02:20:22;;;;;;;1.40;1.20;;;;;;;14.10;100.00;100049.59;5075562;28;20204;-79
2023/08/09 02:22:49;;;;;;;3.60;1.93;;;;;;;14.03;100.00;100053.38;5075434;28;20208;-80
2023/08/09 02:25:16;;;;;;;1.70;1.60;;;;;;;13.93;100.00;100045.91;5075369;28;20223;-80
2023/08/09 02:27:42;;;;;;;2.33;1.57;;;;;;;13.95;100.00;100038.84;5074379;28;20205;-79
2023/08/09 02:30:11;;;;;;;1.93;1.33;;;;;;;13.93;100.00;100031.03;5075103;28;20673;-79
2023/08/09 02:32:39;;;;;;;1.70;1.30;;;;;;;13.52;100.00;100020.38;5074863;28;20290;-79
2023/08/09 02:35:07;;;;;;;1.40;1.30;;;;;;;13.65;100.00;100005.03;5074081;28;20195;-80
2023/08/09 02:37:34;;;;;;;1.30;1.20;;;;;;;13.72;100.00;100006.50;5074708;28;20250;-80
2023/08/09 02:40:01;;;;;;;2.50;1.60;;;;;;;13.63;100.00;100012.09;5075057;28;20682;-80
2023/08/09 02:42:28;;;;;;;2.17;1.40;;;;;;;13.55;100.00;99993.19;5074191;28;20223;-79
2023/08/09 02:44:55;;;;;;;1.20;1.13;;;;;;;13.57;100.00;99999.22;5074554;28;20227;-79
2023/08/09 02:47:22;;;;;;;1.53;1.33;;;;;;;13.54;100.00;100004.56;5060762;28;20258;-80
2023/08/09 02:49:50;;;;;;;1.80;1.70;;;;;;;13.58;100.00;100021.91;5061321;28;20225;-79
2023/08/09 02:52:17;;;;;;;2.07;1.97;;;;;;;13.59;100.00;100023.63;5074273;28;20220;-80
2023/08/09 02:54:43;;;;;;;1.93;1.67;;;;;;;13.60;100.00;100041.91;5074100;28;20200;-80
2023/08/09 02:57:10;;;;;;;2.80;1.97;;;;;;;13.56;100.00;100050.81;5074435;28;20237;-79
2023/08/09 02:59:36;;;;;;;1.40;1.30;;;;;;;13.61;100.00;100067.22;5073780;28;20298;-79
2023/08/09 03:02:03;;;;;;;1.93;1.57;;;;;;;13.60;100.00;100078.63;5074244;28;20229;-78
2023/08/09 03:04:29;;;;;;;1.70;1.60;;;;;;;13.47;100.00;100090.47;5073781;28;20304;-78
2023/08/09 03:06:57;;;;;;;1.20;1.10;;;;;;;13.51;100.00;100087.69;5073997;28;20210;-78
2023/08/09 03:09:24;;;;;;;1.83;1.47;;;;;;;13.49;100.00;100086.03;5073896;28;20207;-78
2023/08/09 03:11:51;;;;;;;1.60;1.43;;;;;;;13.53;100.00;100092.03;5073612;28;20377;-79
2023/08/09 03:14:17;;;;;;;2.40;1.70;;;;;;;13.36;100.00;100092.63;5073875;28;20208;-81
2023/08/09 03:16:44;;;;;;;2.83;1.80;;;;;;;13.41;100.00;100083.69;5075991;28;20237;-80
2023/08/09 03:19:10;;;;;;;2.67;1.77;;;;;;;13.39;100.00;100085.50;5076251;28;20215;-80
2023/08/09 03:21:37;;;;;;;2.00;1.90;;;;;;;13.23;100.00;100064.22;5076389;28;20299;-79
2023/08/09 03:24:06;;;;;;;1.90;1.73;;;;;;;13.30;100.00;100070.97;5076754;28;20572;-78
2023/08/09 03:26:32;;;;;;;2.20;1.70;;;;;;;12.99;100.00;100065.94;5077800;28;20207;-79
2023/08/09 03:28:58;;;;;;;1.80;1.70;;;;;;;13.06;100.00;100053.47;5077956;28;20707;-79
2023/08/09 03:31:25;;;;;;;2.67;1.60;;;;;;;13.12;100.00;100055.88;5076809;28;20270;-79
2023/08/09 03:33:51;;;;;;;1.60;1.40;;;;;;;13.20;100.00;100066.97;5075625;28;20210;-80
2023/08/09 03:36:20;;;;;;;2.17;1.67;;;;;;;13.24;100.00;100089.53;5076098;28;20616;-80
2023/08/09 03:38:46;;;;;;;5.33;2.27;;;;;;;13.26;100.00;100102.56;5076290;28;20262;-80
2023/08/09 03:41:14;;;;;;;4.47;1.77;;;;;;;13.24;100.00;100118.34;5075028;28;20735;-78
2023/08/09 03:43:40;;;;;;;1.87;1.77;;;;;;;13.22;100.00;100129.78;5074561;28;20203;-79
2023/08/09 03:46:07;;;;;;;3.20;1.53;;;;;;;13.18;100.00;100136.91;5073035;28;20233;-80
2023/08/09 03:48:34;;;;;;;1.77;1.67;;;;;;;12.95;100.00;100114.13;5072125;28;20656;-79
2023/08/09 03:51:00;;;;;;;2.07;1.70;;;;;;;12.66;100.00;100081.88;5072551;28;20307;-79
2023/08/09 03:53:27;;;;;;;1.97;1.77;;;;;;;12.46;100.00;100058.13;5072664;28;20198;-78
2023/08/09 03:55:53;;;;;;;2.20;2.00;;;;;;;12.34;100.00;100025.38;5072851;28;20202;-79
2023/08/09 03:58:21;;;;;;;2.10;1.80;;;;;;;12.25;100.00;99994.25;5068648;28;20201;-78
2023/08/09 04:00:48;;;;;;;2.60;1.90;;;;;;;12.10;100.00;99985.16;5072679;28;20237;-79
2023/08/09 04:03:14;;;;;;;1.97;1.87;;;;;;;12.05;100.00;99972.25;5072613;28;20209;-79
2023/08/09 04:05:41;;;;;;;2.93;2.07;;;;;;;12.14;100.00;99970.22;5057194;28;20230;-78
2023/08/09 04:08:07;;;;;;;2.00;1.63;;;;;;;12.12;100.00;99965.88;5072931;28;20217;-79
2023/08/09 04:10:35;;;;;;;2.17;1.93;;;;;;;12.09;100.00;99973.84;5075496;28;20695;-79
2023/08/09 04:13:01;;;;;;;2.23;2.03;;;;;;;12.20;100.00;99963.00;5071861;28;20228;-80
2023/08/09 04:15:29;;;;;;;2.90;2.30;;;;;;;12.20;100.00;99980.47;5074165;28;20290;-78
2023/08/09 04:17:55;;;;;;;8.50;2.67;;;;;;;12.07;100.00;99985.25;5071843;28;20203;-77
2023/08/09 04:20:23;;;;;;;5.80;2.10;;;;;;;12.14;100.00;99986.75;5067720;28;20292;-79
2023/08/09 04:22:50;;;;;;;2.20;2.00;;;;;;;12.30;100.00;99989.72;5052274;28;20210;-78
2023/08/09 04:25:17;;;;;;;3.37;2.30;;;;;;;12.23;100.00;100012.63;5056425;28;20266;-78
2023/08/09 04:27:44;;;;;;;3.50;2.10;;;;;;;12.38;100.00;100016.50;5071835;28;20568;-78
2023/08/09 04:30:12;;;;;;;3.17;2.20;;;;;;;12.50;100.00;100031.78;5072658;28;20573;-79
2023/08/09 04:32:40;;;;;;;2.00;1.80;;;;;;;12.61;100.00;100052.41;5072868;28;20202;-78
2023/08/09 04:35:09;;;;;;;1.73;1.63;;;;;;;12.60;100.00;100071.63;5072251;28;20226;-79
2023/08/09 04:37:36;;;;;;;3.60;2.00;;;;;;;12.69;100.00;100083.56;5072202;28;20203;-78
2023/08/09 04:40:02;;;;;;;2.70;2.10;;;;;;;12.56;100.00;100092.72;5072575;28;20675;-79
2023/08/09 04:42:29;;;;;;;3.57;1.80;;;;;;;12.63;100.00;100089.84;5058577;28;20617;-79
2023/08/09 04:44:55;;;;;;;2.07;1.77;;;;;;;12.75;100.00;100100.84;5052630;28;20230;-79
2023/08/09 04:47:22;;;;;;;2.30;2.00;;;;;;;12.63;100.00;100113.41;5052426;28;20211;-80
2023/08/09 04:49:50;;;;;;;2.47;2.27;;;;;;;12.71;100.00;100113.19;5059557;28;20631;-79
2023/08/09 04:52:18;;;;;;;2.67;2.47;;;;;;;12.60;100.00;100104.81;5063686;28;20254;-79
2023/08/09 04:54:44;;;;;;;2.57;2.37;;;;;;;12.61;100.00;100094.28;5072566;28;20210;-79
2023/08/09 04:57:11;;;;;;;2.17;2.07;;;;;;;12.70;100.00;100107.09;5072343;28;20211;-79
2023/08/09 04:59:37;;;;;;;2.33;2.23;;;;;;;12.79;100.00;100102.44;5072678;28;20245;-78
2023/08/09 05:02:05;;;;;;;2.80;2.60;;;;;;;12.85;100.00;100112.72;5075293;28;20289;-80
2023/08/09 05:04:32;;;;;;;2.77;2.23;;;;;;;12.80;100.00;100118.09;5076891;28;20278;-79
2023/08/09 05:07:00;;;;;;;2.57;2.37;;;;;;;12.79;100.00;100126.03;5078689;28;20198;-79
2023/08/09 05:09:27;;;;;;;3.07;2.87;;;;;;;12.87;100.00;100130.09;5078566;28;20573;-78
2023/08/09 05:11:54;;;;;;;2.80;2.60;;;;;;;12.91;100.00;100141.31;5078403;28;20227;-80
2023/08/09 05:14:20;;;;;;;2.60;2.40;;;;;;;12.97;100.00;100150.75;5077991;28;20608;-79
2023/08/09 05:16:47;;;;;;;2.80;2.60;;;;;;;12.97;100.00;100153.38;5076330;28;20244;-79
2023/08/09 05:19:13;;;;;;;3.23;2.60;;;;;;;13.04;100.00;100165.34;5073874;28;20211;-78
2023/08/09 05:21:39;;;;;;;3.50;3.20;;;;;;;12.81;100.00;100171.34;5076482;28;20222;-79
2023/08/09 05:24:07;;;;;;;2.83;2.63;;;;;;;12.79;100.00;100147.81;5076431;28;20672;-78
2023/08/09 05:26:34;;;;;;;3.27;2.97;;;;;;;12.93;100.00;100149.13;5075725;28;20235;-78
2023/08/09 05:29:00;;;;;;;2.83;2.57;;;;;;;12.94;100.00;100148.22;5075075;28;20215;-78
2023/08/09 05:31:27;;;;;;;3.10;2.80;;;;;;;12.99;100.00;100143.69;5076221;28;20223;-78
2023/08/09 05:33:56;;;;;;;3.00;2.53;;;;;;;13.03;100.00;100147.91;5076134;28;20194;-77
2023/08/09 05:36:22;;;;;;;2.90;2.70;;;;;;;12.77;100.00;100164.50;5068719;28;20204;-79
2023/08/09 05:38:49;;;;;;;3.80;3.27;;;;;;;12.69;100.00;100121.06;5073604;28;20209;-78
2023/08/09 05:41:17;;;;;;;2.73;2.53;;;;;;;12.83;100.00;100111.91;5078050;28;20227;-78
2023/08/09 05:43:44;;;;;;;3.23;2.93;;;;;;;12.96;100.00;100115.81;5073497;28;20203;-78
2023/08/09 05:46:10;;;;;;;3.47;3.20;;;;;;;12.87;100.00;100114.38;5077748;28;20226;-78
2023/08/09 05:48:37;;;;;;;4.60;3.37;;;;;;;12.71;100.00;100094.84;5077357;28;20204;-78
2023/08/09 05:51:04;;;;;;;3.40;3.20;;;;;;;12.84;100.00;100085.69;5076403;28;20248;-78
2023/08/09 05:53:30;;;;;;;3.70;3.50;;;;;;;12.85;100.00;100091.75;5063868;28;20211;-79
2023/08/09 05:55:57;;;;;;;3.77;3.37;;;;;;;12.71;100.00;100087.84;5074144;28;20199;-78
2023/08/09 05:58:25;;;;;;;4.30;4.00;;;;;;;12.72;100.00;100070.34;5075341;28;20235;-79
2023/08/09 06:00:52;;;;;;;3.87;3.57;;;;;;;12.75;100.00;100069.41;5059164;28;20318;-79
2023/08/09 06:06:40;;;;;;;4.50;4.20;;;;;;;12.75;100.00;100061.56;5055870;28;20234;-79
2023/08/09 06:09:09;;;;;;;3.97;3.67;;;;;;;12.86;100.00;100064.63;5078226;28;20207;-78
2023/08/09 06:11:36;;;;;;;4.87;3.97;;;;;;;12.98;100.00;100071.22;5072758;28;20696;-78
2023/08/09 06:14:04;;;;;;;5.10;4.60;;;;;;;12.89;100.00;100070.63;5074232;28;20202;-79
2023/08/09 06:16:31;;;;;;;5.23;4.43;;;;;;;12.98;100.00;100074.69;5073512;28;20220;-78
2023/08/09 06:18:57;;;;;;;4.27;3.97;;;;;;;12.88;100.00;100091.63;5074232;28;20211;-78
2023/08/09 06:21:24;;;;;;;4.30;3.80;;;;;;;13.00;100.00;100077.25;5073471;28;20229;-78
2023/08/09 06:23:50;;;;;;;5.07;3.90;;;;;;;13.15;100.00;100071.50;5074810;28;20206;-79
2023/08/09 06:26:17;;;;;;;4.37;3.90;;;;;;;13.21;100.00;100080.91;5074412;28;20230;-80
2023/08/09 06:28:44;;;;;;;3.83;3.53;;;;;;;13.07;100.00;100103.22;5077814;28;20202;-79
2023/08/09 06:31:11;;;;;;;4.20;3.90;;;;;;;13.22;100.00;100114.06;5076361;28;20229;-79
2023/08/09 06:33:42;;;;;;;3.70;3.30;;;;;;;13.26;100.00;100134.88;5074172;28;20197;-79
2023/08/09 06:36:09;;;;;;;3.63;3.33;;;;;;;13.23;100.00;100157.72;5077227;28;20208;-79
2023/08/09 06:38:36;;;;;;;5.17;3.37;;;;;;;13.33;100.00;100158.28;5077219;28;20218;-80
2023/08/09 06:41:02;;;;;;;4.67;2.83;;;;;;;13.33;100.00;100182.72;5077157;28;20595;-78
2023/08/09 06:43:29;;;;;;;2.57;2.37;;;;;;;13.46;100.00;100185.81;5077293;28;20666;-80
2023/08/09 06:45:58;;;;;;;2.73;2.53;;;;;;;13.50;100.00;100197.91;5076915;28;20251;-79
2023/08/09 06:48:29;;;;;;;4.03;3.30;;;;;;;13.57;100.00;100198.53;5067976;28;20211;-81
2023/08/09 06:50:55;;;;;;;3.40;3.07;;;;;;;13.62;100.00;100220.22;5076365;28;20260;-80
2023/08/09 06:53:23;;;;;;;4.20;3.00;;;;;;;13.56;100.00;100237.00;5077086;28;20574;-79
2023/08/09 06:55:50;;;;;;;2.60;2.40;;;;;;;13.60;100.00;100256.97;5076430;28;20203;-79
2023/08/09 06:58:16;;;;;;;2.53;2.33;;;;;;;13.66;100.00;100280.38;5075815;28;20671;-82
2023/08/09 07:00:45;;;;;;;2.80;2.60;;;;;;;13.65;100.00;100291.75;5074190;28;20236;-80
2023/08/09 07:03:11;;;;;;;2.43;2.07;;;;;;;13.83;100.00;100292.88;5077886;28;20214;-78
2023/08/09 07:05:41;;;;;;;2.60;2.20;;;;;;;13.90;100.00;100299.66;5075956;28;20253;-79
2023/08/09 07:08:07;;;;;;;2.67;2.07;;;;;;;13.99;100.00;100311.56;5075484;28;20200;-81
2023/08/09 07:10:34;;;;;;;2.67;2.07;;;;;;;14.05;100.00;100336.75;5075027;28;20217;-78
2023/08/09 07:13:00;;;;;;;2.23;2.00;;;;;;;13.93;100.00;100392.28;5073167;28;20211;-81
2023/08/09 07:15:27;;;;;;;2.50;2.13;;;;;;;14.02;100.00;100390.22;5067026;28;20554;-81
2023/08/09 07:17:54;;;;;;;2.10;1.77;;;;;;;14.00;100.00;100410.41;5075321;28;20236;-80
2023/08/09 07:20:20;;;;;;;2.00;1.80;;;;;;;14.12;100.00;100419.63;5073763;28;20215;-83
2023/08/09 07:22:48;;;;;;;2.00;1.80;;;;;;;14.17;100.00;100414.22;5075068;28;20565;-79
2023/08/09 07:25:15;;;;;;;2.87;2.43;;;;;;;14.28;99.91;100467.22;5074952;28;20294;-79
2023/08/09 07:27:43;;;;;;;2.20;1.83;;;;;;;14.32;99.69;100465.38;5076327;28;20206;-80
2023/08/09 07:30:10;;;;;;;2.97;1.83;;;;;;;14.34;97.20;100508.19;5077836;28;20211;-80
2023/08/09 07:32:38;;;;;;;1.50;1.37;;;;;;;14.39;95.76;100535.13;5094592;28;20584;-78
2023/08/09 07:35:06;;;;;;;2.30;1.40;;;;;;;14.42;96.03;100543.78;5093871;28;20238;-77
2023/08/09 07:37:34;;;;;;;1.73;1.20;;;;;;;14.44;95.89;100551.63;5095107;28;20204;-78
2023/08/09 07:40:04;;;;;;;1.43;1.40;;;;;;;14.36;96.64;100556.25;5087792;28;20188;-77
2023/08/09 07:42:30;;;;;;;3.00;1.60;;;;;;;14.47;97.56;100533.13;5077317;28;20215;-81
2023/08/09 07:44:59;;;;;;;2.13;1.50;;;;;;;14.50;96.67;100544.38;5069959;28;20579;-81
2023/08/09 07:47:25;;;;;;;2.00;1.40;;;;;;;14.58;96.54;100559.06;5068875;28;20235;-81
2023/08/09 07:49:52;;;;;;;6.33;1.50;;;;;;;14.67;92.66;100600.81;5067605;28;20419;-78
2023/08/09 07:52:18;;;;;;;6.83;1.30;;;;;;;14.65;92.18;100621.88;5075829;28;20239;-79
2023/08/09 07:54:45;;;;;;;1.83;1.40;;;;;;;14.63;91.80;100647.34;5076225;28;20199;-78
2023/08/09 07:57:13;;;;;;;0.97;0.90;;;;;;;14.59;90.49;100664.09;5075219;28;20202;-80
2023/08/09 07:59:39;;;;;;;1.50;1.10;;;;;;;14.80;91.83;100656.41;5076499;28;20206;-79
2023/08/09 08:02:06;;;;;;;1.40;1.30;;;;;;;14.95;92.39;100624.38;5076619;28;20235;-80
2023/08/09 08:04:32;;;;;;;1.20;1.10;;;;;;;14.91;88.04;100698.13;5077232;28;20207;-81
2023/08/09 08:06:59;;;;;;;1.63;0.83;;;;;;;14.88;85.75;100773.56;5071481;28;20227;-78
2023/08/09 08:09:25;;;;;;;1.23;1.20;;;;;;;14.95;84.41;100794.38;5087690;28;20224;-77
2023/08/09 08:11:52;;;;;;;0.93;0.93;;;;;;;15.08;85.44;100798.31;5067951;28;20226;-80
2023/08/09 08:14:20;;;;;;;1.53;0.90;;;;;;;15.12;85.62;100814.88;5057089;28;20658;-81
2023/08/09 08:16:46;;;;;;;2.33;0.97;;;;;;;15.25;85.41;100797.78;5069634;28;20191;-81
2023/08/09 08:19:13;;;;;;;3.27;1.20;;;;;;;15.35;85.17;100799.22;5073959;28;20197;-80
2023/08/09 08:21:40;;;;;;;1.23;1.13;;;;;;;15.55;86.91;100776.63;5055202;28;20230;-81
2023/08/09 08:24:08;;;;;;;2.23;1.10;;;;;;;15.79;87.59;100764.44;5072554;28;20585;-80
2023/08/09 08:26:35;;;;;;;2.10;1.40;;;;;;;15.82;84.32;100809.09;5075085;28;20222;-79
2023/08/09 08:29:02;;;;;;;1.10;1.00;;;;;;;15.82;84.34;100819.63;5074522;28;20210;-80
2023/08/09 08:31:30;;;;;;;1.70;1.10;;;;;;;16.03;85.57;100789.00;5058091;28;20255;-79
2023/08/09 08:33:56;;;;;;;2.00;1.10;;;;;;;15.86;80.23;100882.63;5075595;28;20207;-81
2023/08/09 08:36:23;;;;;;;3.40;1.07;;;;;;;15.92;80.94;100897.38;5078290;28;20199;-80
2023/08/09 08:38:50;;;;;;;1.83;0.70;;;;;;;15.84;77.89;100923.94;5080833;28;20223;-81
2023/08/09 08:41:26;;;;;;;2.47;0.90;;;;;;;15.83;79.29;100959.06;5081717;28;20226;-79
2023/08/09 08:43:53;;;;;;;1.27;0.63;;;;;;;16.02;79.28;100959.34;5080168;28;20215;-80
2023/08/09 08:46:21;;;;;;;2.10;0.70;;;;;;;16.15;74.98;101012.44;5077453;28;20223;-80
2023/08/09 08:48:50;;;;;;;0.73;0.60;;;;;;;16.31;75.21;101052.31;5059345;28;20232;-79
2023/08/09 08:51:18;;;;;;;2.37;0.90;;;;;;;16.36;76.83;101028.47;5080021;28;20235;-80
2023/08/09 08:53:46;;;;;;;0.97;0.67;;;;;;;16.30;74.69;101061.16;5079566;28;20230;-78
2023/08/09 08:56:14;;;;;;;2.43;1.13;;;;;;;16.36;74.32;101071.47;5079920;28;20206;-81
2023/08/09 08:58:41;;;;;;;1.40;0.73;;;;;;;16.28;73.48;101081.41;5079137;28;20215;-80
2023/08/09 09:01:09;;;;;;;0.87;0.87;;;;;;;16.37;74.83;101062.69;5078802;28;20227;-80
2023/08/09 09:03:36;;;;;;;1.07;0.60;;;;;;;16.39;72.45;101092.47;5078137;28;20206;-81
2023/08/09 09:06:04;;;;;;;0.50;0.50;;;;;;;16.53;72.04;101123.66;5078652;28;20239;-80
2023/08/09 09:08:30;;;;;;;1.27;0.70;;;;;;;16.46;70.91;101161.63;5077670;28;20205;-80
2023/08/09 09:10:59;;;;;;;1.90;1.40;;;;;;;16.62;70.82;101154.09;5078510;28;20235;-80
2023/08/09 09:13:26;;;;;;;0.90;0.90;;;;;;;16.67;71.11;101170.63;5078592;28;20269;-80
2023/08/09 09:15:54;;;;;;;1.30;0.73;;;;;;;16.63;69.88;101195.34;5078927;28;20211;-81
2023/08/09 09:18:21;;;;;;;1.07;0.50;;;;;;;16.62;66.93;101235.81;5078298;28;20205;-80
2023/08/09 09:20:49;;;;;;;0.47;0.47;;;;;;;16.82;67.97;101254.53;5079511;28;20686;-81
2023/08/09 09:23:36;;;;;;;0.40;0.40;;;;;;;16.88;65.41;101282.47;5079027;28;20235;-78
2023/08/09 09:26:08;;;;;;;2.73;1.00;;;;;;;16.90;66.72;101296.47;5078806;28;20220;-80
2023/08/09 09:28:39;;;;;;;0.40;0.40;;;;;;;17.01;65.73;101302.28;5079155;28;20681;-81
2023/08/09 09:31:06;;;;;;;0.40;0.40;;;;;;;16.93;66.41;101311.38;5078922;28;20232;-78
2023/08/09 09:33:34;;;;;;;1.07;0.70;;;;;;;16.78;66.64;101281.88;5078430;28;20254;-79
2023/08/09 09:36:01;;;;;;;0.57;0.47;;;;;;;16.94;65.50;101274.38;5077132;28;20212;-80
2023/08/09 09:38:27;;;;;;;4.77;0.60;;;;;;;16.84;63.58;101347.63;5078003;28;20236;-81
2023/08/09 09:40:56;;;;;;;0.60;0.50;;;;;;;17.02;62.59;101369.09;5078295;28;20295;-80
2023/08/09 09:43:23;;;;;;;0.60;0.60;;;;;;;17.15;63.97;101378.34;5078361;28;20258;-81
2023/08/09 09:45:53;;;;;;;1.97;0.83;;;;;;;17.21;64.07;101369.38;5078491;28;20233;-81
2023/08/09 09:48:20;;;;;;;0.57;0.57;;;;;;;17.07;64.35;101367.19;5081360;28;20573;-77
2023/08/09 09:50:48;;;;;;;1.60;0.60;;;;;;;17.21;64.08;101345.63;5068414;28;20260;-79
2023/08/09 09:53:15;;;;;;;1.70;0.73;;;;;;;17.20;63.64;101352.66;5075492;28;20208;-79
2023/08/09 09:55:42;;;;;;;1.20;0.87;;;;;;;17.16;63.19;101361.59;5077642;28;20251;-81
2023/08/09 09:58:12;;;;;;;0.70;0.60;;;;;;;17.19;64.66;101347.47;5063324;28;20215;-81
2023/08/09 10:00:41;;;;;;;0.67;0.50;;;;;;;17.25;62.10;101360.47;5078443;28;20225;-81
2023/08/09 10:03:09;;;;;;;1.93;0.50;;;;;;;17.11;60.44;101418.09;5062723;28;20209;-80
2023/08/09 10:05:38;;;;;;;1.20;0.70;;;;;;;17.07;61.74;101409.38;5076907;28;20215;-79
2023/08/09 10:08:06;;;;;;;0.70;0.60;;;;;;;17.05;63.74;101384.84;5071121;28;20236;-81
2023/08/09 10:10:34;;;;;;;0.83;0.50;;;;;;;16.81;63.67;101363.56;5078274;28;20312;-80
2023/08/09 10:13:03;;;;;;;1.03;0.70;;;;;;;16.86;64.74;101334.41;5078766;28;20205;-79
2023/08/09 10:15:35;;;;;;;0.53;0.53;;;;;;;16.92;64.54;101325.44;5078872;28;20213;-81
2023/08/09 10:18:10;;;;;;;0.47;0.47;;;;;;;16.92;63.64;101317.53;5079427;28;20209;-80
2023/08/09 10:20:38;;;;;;;1.70;0.93;;;;;;;17.09;62.36;101351.31;5066465;28;20225;-81
2023/08/09 10:23:05;;;;;;;0.40;0.40;;;;;;;17.21;60.98;101394.00;5059005;28;20236;-79
2023/08/09 10:25:46;;;;;;;1.93;1.40;;;;;;;17.34;59.48;101431.41;5060251;28;20209;-80
2023/08/09 10:28:12;;;;;;;0.40;0.40;;;;;;;17.45;59.94;101441.63;5078027;28;20228;-81
2023/08/09 10:30:48;;;;;;;0.83;0.73;;;;;;;17.50;59.95;101439.69;5077525;28;20232;-79
2023/08/09 10:33:18;;;;;;;0.50;0.40;;;;;;;17.45;59.64;101463.63;5077747;28;20201;-80
2023/08/09 10:35:55;;;;;;;0.70;0.70;;;;;;;17.52;58.97;101464.31;5068752;28;20207;-81
2023/08/09 10:38:39;;;;;;;0.63;0.60;;;;;;;17.39;59.64;101473.50;5070162;28;20205;-81
2023/08/09 10:41:09;;;;;;;0.90;0.87;;;;;;;17.38;59.78;101458.56;5077659;28;20251;-78
2023/08/09 10:43:35;;;;;;;0.60;0.60;;;;;;;17.11;60.91;101449.75;5077856;28;20232;-80
2023/08/09 10:46:18;;;;;;;1.67;0.67;;;;;;;17.13;62.16;101424.19;5078631;28;20231;-78
2023/08/09 10:48:50;;;;;;;0.90;0.60;;;;;;;17.38;62.28;101389.94;5069585;28;20279;-80
2023/08/09 10:51:21;;;;;;;1.20;0.80;;;;;;;17.61;59.58;101407.69;5076548;28;20232;-80
2023/08/09 10:53:58;;;;;;;0.60;0.43;;;;;;;17.81;58.88;101444.00;5069868;28;20204;-80
2023/08/09 10:56:32;;;;;;;0.97;0.93;;;;;;;18.06;58.16;101468.72;5076618;28;20212;-81
2023/08/09 10:59:07;;;;;;;0.40;0.40;;;;;;;18.19;52.32;101550.22;5077193;28;20200;-80
2023/08/09 11:01:35;;;;;;;0.90;0.90;;;;;;;18.36;52.89;101650.13;5076550;28;20216;-80
2023/08/09 11:04:04;;;;;;;0.87;0.87;;;;;;;18.78;53.18;101657.56;5076002;28;20224;-81
2023/08/09 11:06:35;;;;;;;0.63;0.60;;;;;;;18.98;52.83;101697.47;5074502;28;20687;-80
2023/08/09 11:09:08;;;;;;;0.57;0.57;;;;;;;18.73;53.52;101707.09;5070802;28;20690;-81
2023/08/09 11:11:35;;;;;;;1.73;0.83;;;;;;;18.58;54.25;101682.03;5076553;28;20230;-81
2023/08/09 11:14:02;;;;;;;0.60;0.60;;;;;;;18.41;55.45;101648.19;5062541;28;20205;-80
2023/08/09 11:16:29;;;;;;;0.80;0.80;;;;;;;18.50;54.96;101644.41;5065871;28;20206;-81
2023/08/09 11:19:05;;;;;;;0.37;0.37;;;;;;;18.44;53.20;101666.63;5064255;28;20686;-81
2023/08/09 11:21:39;;;;;;;0.83;0.63;;;;;;;18.48;52.74;101696.47;5075549;28;20589;-81
2023/08/09 11:24:07;;;;;;;0.73;0.73;;;;;;;18.51;52.66;101688.41;5069424;28;20204;-80
2023/08/09 11:26:35;;;;;;;0.53;0.47;;;;;;;18.83;53.40;101690.06;5073974;28;20670;-80
2023/08/09 11:29:02;;;;;;;0.80;0.70;;;;;;;18.92;51.68;101705.63;5075174;28;20211;-77